Time;durP1;ratioP1;P1;durP2;ratioP2;P2;SDS_P1;SDS_P2;PMS_P1;PMS_P2;Temp;Humidity;BMP_temperature;BMP_pressure;BME280_temperature;BME280_humidity;BME280_pressure;Samples;Min_cycle;Max_cycle;Signal;HPM_P1;HPM_P2
2024/01/02 00:01:42;;;;;;;3.20;2.85;;;23.40;51.40;;;;;;5095130;28;20150;-73
2024/01/02 00:04:08;;;;;;;3.60;2.72;;;23.30;51.40;;;;;;5094842;28;20057;-73
2024/01/02 00:06:34;;;;;;;3.95;2.58;;;23.40;51.60;;;;;;5094774;28;20048;-74
2024/01/02 00:09:00;;;;;;;4.68;3.28;;;23.30;51.70;;;;;;5094765;28;20048;-74
2024/01/02 00:11:26;;;;;;;4.43;2.83;;;23.30;51.90;;;;;;5061254;28;20047;-75
2024/01/02 00:13:53;;;;;;;2.47;2.28;;;23.30;52.10;;;;;;5097397;28;20419;-74
2024/01/02 00:16:19;;;;;;;5.30;3.20;;;23.30;52.30;;;;;;5077926;28;20048;-73
2024/01/02 00:18:45;;;;;;;4.25;3.38;;;23.40;52.50;;;;;;5097228;28;20024;-74
2024/01/02 00:21:11;;;;;;;4.97;3.22;;;23.40;52.60;;;;;;5097338;28;20024;-72
2024/01/02 00:23:38;;;;;;;5.00;2.90;;;23.40;52.60;;;;;;5096948;28;20060;-73
2024/01/02 00:26:04;;;;;;;3.20;2.85;;;23.30;52.60;;;;;;5097316;28;20134;-73
2024/01/02 00:28:30;;;;;;;5.55;4.00;;;23.30;52.60;;;;;;5097022;28;20154;-74
2024/01/02 00:30:56;;;;;;;3.83;3.03;;;23.40;52.70;;;;;;5095836;28;20043;-73
2024/01/02 00:33:22;;;;;;;5.00;3.70;;;23.20;52.60;;;;;;5112730;28;20404;-72
2024/01/02 00:35:48;;;;;;;3.78;2.70;;;23.40;52.70;;;;;;5096956;28;20528;-75
2024/01/02 00:38:14;;;;;;;3.03;2.58;;;23.30;52.70;;;;;;5112492;28;20403;-75
2024/01/02 00:40:40;;;;;;;3.13;2.83;;;23.40;52.70;;;;;;5097199;28;20040;-76
2024/01/02 00:43:06;;;;;;;5.25;3.35;;;23.30;52.70;;;;;;5094159;28;20036;-73
2024/01/02 00:45:32;;;;;;;4.00;3.10;;;23.20;52.60;;;;;;5092622;28;20092;-72
2024/01/02 00:47:59;;;;;;;5.25;3.75;;;23.40;52.80;;;;;;5093630;28;20044;-75
2024/01/02 00:50:25;;;;;;;5.28;4.30;;;23.30;52.90;;;;;;5092241;28;20050;-72
2024/01/02 00:52:51;;;;;;;3.83;3.40;;;23.30;53.00;;;;;;5093558;28;20074;-73
2024/01/02 00:55:17;;;;;;;4.95;3.10;;;23.30;53.10;;;;;;5109416;28;20035;-71
2024/01/02 00:57:43;;;;;;;4.20;2.65;;;23.20;53.10;;;;;;5074645;28;20047;-71
2024/01/02 01:00:10;;;;;;;3.35;2.55;;;23.10;53.30;;;;;;5093587;28;20032;-74
2024/01/02 01:02:36;;;;;;;3.83;2.90;;;23.30;53.50;;;;;;5092188;28;20115;-72
2024/01/02 01:05:03;;;;;;;4.40;3.05;;;23.20;53.60;;;;;;5093246;28;20039;-72
2024/01/02 01:07:29;;;;;;;4.05;3.33;;;23.20;53.70;;;;;;5093384;28;20464;-73
2024/01/02 01:09:55;;;;;;;5.53;3.42;;;23.10;53.90;;;;;;5093450;28;20028;-73
2024/01/02 01:12:21;;;;;;;3.30;2.92;;;23.20;54.00;;;;;;5093335;28;20480;-71
2024/01/02 01:14:47;;;;;;;4.57;3.78;;;23.20;53.90;;;;;;5093222;28;20119;-70
2024/01/02 01:17:13;;;;;;;4.38;3.03;;;23.10;53.90;;;;;;5093194;28;20093;-73
2024/01/02 01:19:40;;;;;;;3.17;2.78;;;23.10;53.90;;;;;;5093113;28;20122;-73
2024/01/02 01:22:06;;;;;;;3.70;2.92;;;23.20;53.80;;;;;;5091866;28;20051;-73
2024/01/02 01:24:32;;;;;;;4.25;3.30;;;23.20;53.80;;;;;;5093096;28;20032;-72
2024/01/02 01:26:59;;;;;;;4.78;3.05;;;23.20;53.70;;;;;;5108538;28;20396;-72
2024/01/02 01:29:26;;;;;;;3.80;2.45;;;23.20;53.70;;;;;;5093111;28;20036;-74
2024/01/02 01:31:52;;;;;;;3.05;2.72;;;23.30;53.70;;;;;;5092928;28;20081;-74
2024/01/02 01:34:18;;;;;;;3.92;2.58;;;23.10;53.60;;;;;;5073420;28;20380;-75
2024/01/02 01:36:44;;;;;;;4.20;3.17;;;23.20;53.50;;;;;;5094849;28;20052;-73
2024/01/02 01:39:10;;;;;;;3.33;2.75;;;23.20;53.40;;;;;;5113245;28;20517;-71
2024/01/02 01:41:36;;;;;;;4.60;2.92;;;23.30;53.60;;;;;;5111810;28;20058;-73
2024/01/02 01:44:02;;;;;;;3.20;2.78;;;23.30;53.60;;;;;;5113088;28;20024;-73
2024/01/02 01:46:37;;;;;;;2.70;2.40;;;23.20;53.60;;;;;;5108357;28;20030;-73
2024/01/02 01:49:06;;;;;;;3.38;2.70;;;23.30;53.80;;;;;;5112965;28;20040;-69
2024/01/02 01:51:39;;;;;;;3.63;2.83;;;23.10;53.90;;;;;;5113031;28;20386;-69
2024/01/02 01:54:05;;;;;;;;;;;23.10;53.90;;;;;;5112872;28;20039;-69
2024/01/02 01:56:33;;;;;;;3.95;2.33;;;23.10;54.10;;;;;;5112910;28;19918;-70
2024/01/02 01:59:04;;;;;;;4.43;2.47;;;23.10;54.20;;;;;;5111375;28;20024;-70
2024/01/02 02:01:31;;;;;;;3.63;2.67;;;23.20;54.30;;;;;;5111461;28;20046;-70
2024/01/02 02:03:59;;;;;;;3.08;2.30;;;23.00;54.40;;;;;;5111342;28;20023;-70
2024/01/02 02:06:26;;;;;;;2.65;2.20;;;23.00;54.60;;;;;;5098513;28;20510;-70
2024/01/02 02:08:52;;;;;;;4.10;2.40;;;23.10;54.70;;;;;;5092205;28;20035;-70
2024/01/02 02:11:20;;;;;;;2.00;1.83;;;23.10;54.60;;;;;;5092145;28;20036;-70
2024/01/02 02:13:47;;;;;;;3.88;2.47;;;23.10;54.50;;;;;;5091996;28;20085;-70
2024/01/02 02:16:14;;;;;;;3.85;2.60;;;23.10;54.40;;;;;;5091889;28;20111;-70
2024/01/02 02:18:41;;;;;;;2.20;1.95;;;23.00;54.30;;;;;;5090608;28;20502;-69
2024/01/02 02:21:07;;;;;;;1.88;1.77;;;23.20;54.30;;;;;;5091771;28;20035;-70
2024/01/02 02:23:33;;;;;;;2.42;1.70;;;23.10;54.20;;;;;;5090586;28;20110;-70
2024/01/02 02:25:59;;;;;;;2.42;1.88;;;23.10;54.20;;;;;;5091819;28;20149;-70
2024/01/02 02:28:25;;;;;;;2.40;2.05;;;23.20;54.10;;;;;;5091597;28;20407;-71
2024/01/02 02:30:51;;;;;;;2.22;1.85;;;23.00;54.00;;;;;;5090733;28;20036;-69
2024/01/02 02:33:18;;;;;;;3.58;2.20;;;23.10;54.00;;;;;;5090178;28;20020;-70
2024/01/02 02:35:44;;;;;;;3.22;2.10;;;23.20;54.00;;;;;;5091768;28;20047;-69
2024/01/02 02:38:10;;;;;;;2.78;2.20;;;23.10;54.00;;;;;;5091578;28;20034;-69
2024/01/02 02:40:37;;;;;;;2.92;1.85;;;23.10;54.10;;;;;;5091726;28;20085;-69
2024/01/02 02:43:04;;;;;;;2.38;2.17;;;23.10;54.20;;;;;;5072112;28;20523;-69
2024/01/02 02:45:32;;;;;;;3.08;2.10;;;23.10;54.30;;;;;;5073434;28;20123;-69
2024/01/02 02:47:58;;;;;;;3.25;2.88;;;23.10;54.50;;;;;;5091209;28;20040;-68
2024/01/02 02:50:24;;;;;;;4.85;2.70;;;23.00;54.50;;;;;;5091382;28;20104;-70
2024/01/02 02:52:50;;;;;;;2.70;2.42;;;23.00;54.70;;;;;;5073247;28;20058;-69
2024/01/02 02:55:16;;;;;;;6.07;2.88;;;23.00;54.70;;;;;;5089906;28;20031;-69
2024/01/02 02:57:42;;;;;;;4.75;2.80;;;23.00;54.80;;;;;;5088668;28;20044;-69
2024/01/02 03:00:10;;;;;;;3.67;2.38;;;23.00;55.00;;;;;;5088650;28;20082;-69
2024/01/02 03:02:36;;;;;;;3.00;1.98;;;23.00;55.00;;;;;;5088603;28;20051;-68
2024/01/02 03:05:02;;;;;;;6.05;3.35;;;23.00;55.10;;;;;;5088254;28;20028;-69
2024/01/02 03:07:28;;;;;;;3.75;2.50;;;22.90;55.10;;;;;;5071722;28;20072;-67
2024/01/02 03:09:55;;;;;;;4.70;2.00;;;22.90;55.20;;;;;;5088758;28;20051;-70
2024/01/02 03:12:21;;;;;;;2.75;2.47;;;22.90;55.20;;;;;;5088633;28;20047;-70
2024/01/02 03:14:47;;;;;;;2.90;2.40;;;22.90;55.30;;;;;;5088391;28;20036;-70
2024/01/02 03:17:13;;;;;;;2.20;1.92;;;22.90;55.30;;;;;;5088453;28;20452;-70
2024/01/02 03:19:39;;;;;;;2.95;2.38;;;22.90;55.40;;;;;;5088755;28;20561;-70
2024/01/02 03:22:05;;;;;;;3.60;2.25;;;22.90;55.50;;;;;;5088587;28;20032;-69
2024/01/02 03:24:32;;;;;;;3.67;2.35;;;22.90;55.50;;;;;;5088461;28;20260;-69
2024/01/02 03:26:58;;;;;;;2.75;2.20;;;22.80;55.50;;;;;;5088564;28;20028;-70
2024/01/02 03:29:26;;;;;;;2.28;2.00;;;22.80;55.60;;;;;;5090450;28;20055;-70
2024/01/02 03:31:53;;;;;;;2.90;2.00;;;22.80;55.60;;;;;;5090830;28;20047;-70
2024/01/02 03:34:19;;;;;;;2.97;2.00;;;22.90;55.60;;;;;;5091003;28;20063;-70
2024/01/02 03:36:46;;;;;;;2.50;1.90;;;22.80;55.30;;;;;;5108375;28;20112;-70
2024/01/02 03:39:12;;;;;;;3.80;1.83;;;22.90;55.30;;;;;;5111055;28;20165;-70
2024/01/02 03:41:38;;;;;;;1.90;1.48;;;22.80;55.00;;;;;;5105871;28;20138;-70
2024/01/02 03:44:05;;;;;;;1.48;1.38;;;23.00;55.10;;;;;;5090616;28;20066;-70
2024/01/02 03:46:31;;;;;;;0.88;0.88;;;23.00;55.10;;;;;;5090975;28;20036;-70
2024/01/02 03:48:57;;;;;;;1.55;1.20;;;23.00;55.00;;;;;;5090552;28;20127;-69
2024/01/02 03:51:23;;;;;;;2.22;1.23;;;23.00;55.00;;;;;;5090904;28;20162;-70
2024/01/02 03:53:49;;;;;;;1.58;1.17;;;23.00;54.90;;;;;;5090429;28;20113;-70
2024/01/02 03:56:16;;;;;;;4.15;1.25;;;23.10;54.90;;;;;;5090858;28;20035;-69
2024/01/02 03:58:42;;;;;;;1.38;1.27;;;23.20;54.90;;;;;;5090699;28;20031;-70
2024/01/02 04:01:08;;;;;;;2.58;1.52;;;23.10;54.80;;;;;;5093393;28;20020;-69
2024/01/02 04:03:34;;;;;;;1.60;1.23;;;23.10;54.80;;;;;;5109443;28;20024;-69
2024/01/02 04:06:00;;;;;;;1.75;1.60;;;23.10;54.70;;;;;;5110964;28;20061;-69
2024/01/02 04:08:27;;;;;;;2.08;1.88;;;23.20;54.70;;;;;;5091528;28;20100;-70
2024/01/02 04:10:53;;;;;;;3.10;1.70;;;23.20;54.60;;;;;;5111049;28;20028;-66
2024/01/02 04:13:19;;;;;;;4.00;2.40;;;23.10;54.60;;;;;;5091869;28;20398;-67
2024/01/02 04:15:45;;;;;;;4.20;2.63;;;23.20;54.50;;;;;;5110525;28;20031;-67
2024/01/02 04:18:11;;;;;;;2.83;1.70;;;23.20;54.50;;;;;;5112092;28;20059;-68
2024/01/02 04:20:37;;;;;;;2.75;1.75;;;23.10;54.40;;;;;;5114456;28;20483;-67
2024/01/02 04:23:03;;;;;;;2.20;1.70;;;23.30;54.40;;;;;;5114542;28;20039;-72
2024/01/02 04:25:30;;;;;;;1.67;1.58;;;23.20;54.20;;;;;;5062072;28;20063;-73
2024/01/02 04:27:56;;;;;;;1.50;1.00;;;23.30;53.70;;;;;;5114254;28;20489;-71
2024/01/02 04:30:23;;;;;;;1.50;1.40;;;23.20;52.80;;;;;;5114565;28;20028;-70
2024/01/02 04:32:49;;;;;;;1.63;1.45;;;23.70;54.90;;;;;;5114641;28;20082;-70
2024/01/02 04:35:16;;;;;;;4.95;1.58;;;24.40;53.70;;;;;;5114537;28;20122;-69
2024/01/02 04:37:43;;;;;;;1.85;1.60;;;25.00;53.40;;;;;;5114608;28;20031;-71
2024/01/02 04:40:10;;;;;;;3.10;1.77;;;25.30;52.20;;;;;;5114712;28;20110;-73
2024/01/02 04:42:37;;;;;;;1.73;1.48;;;25.00;48.60;;;;;;5113369;28;20051;-79
2024/01/02 04:45:04;;;;;;;2.10;1.88;;;25.20;49.90;;;;;;5114473;28;20035;-76
2024/01/02 04:47:31;;;;;;;2.22;1.88;;;25.30;49.20;;;;;;5113260;28;20038;-73
2024/01/02 04:49:58;;;;;;;1.48;1.15;;;25.00;46.80;;;;;;5114400;28;20032;-73
2024/01/02 04:52:26;;;;;;;2.35;1.48;;;24.80;46.00;;;;;;5114415;28;20043;-72
2024/01/02 04:54:52;;;;;;;4.22;1.40;;;24.60;45.10;;;;;;5114439;27;20034;-73
2024/01/02 04:57:18;;;;;;;1.55;1.23;;;24.50;44.60;;;;;;5095433;28;20529;-71
2024/01/02 04:59:44;;;;;;;2.03;1.42;;;24.50;44.10;;;;;;5114004;28;20046;-72
2024/01/02 05:02:10;;;;;;;1.98;1.10;;;24.40;43.40;;;;;;5114179;28;20528;-71
2024/01/02 05:04:36;;;;;;;1.52;0.98;;;24.30;43.00;;;;;;5113731;28;20027;-71
2024/01/02 05:07:03;;;;;;;3.45;1.30;;;24.30;42.80;;;;;;5113045;28;20130;-70
2024/01/02 05:09:29;;;;;;;1.20;1.08;;;24.20;42.80;;;;;;5114166;28;20109;-70
2024/01/02 05:11:56;;;;;;;3.00;1.50;;;24.30;43.00;;;;;;5113960;28;20371;-71
2024/01/02 05:14:22;;;;;;;1.30;1.20;;;24.20;42.70;;;;;;5112624;28;20039;-71
2024/01/02 05:16:49;;;;;;;5.55;1.35;;;24.10;42.60;;;;;;5113877;28;20134;-71
2024/01/02 05:19:15;;;;;;;2.60;1.50;;;24.50;47.40;;;;;;5094728;28;20487;-71
2024/01/02 05:21:42;;;;;;;1.48;1.20;;;25.20;51.50;;;;;;5112507;28;20104;-71
2024/01/02 05:24:09;;;;;;;1.60;1.50;;;25.00;52.00;;;;;;5113865;28;20122;-70
2024/01/02 05:26:35;;;;;;;1.80;1.70;;;24.90;47.10;;;;;;5111912;28;20119;-69
2024/01/02 05:29:01;;;;;;;2.90;1.65;;;24.70;46.60;;;;;;5112235;28;20135;-69
2024/01/02 05:31:27;;;;;;;2.45;1.88;;;24.60;46.70;;;;;;5093996;28;20050;-69
2024/01/02 05:33:53;;;;;;;2.50;1.95;;;24.50;46.90;;;;;;5113277;28;20118;-68
2024/01/02 05:36:19;;;;;;;6.15;3.20;;;24.40;47.00;;;;;;5113368;28;20054;-69
2024/01/02 05:38:45;;;;;;;4.22;2.80;;;24.30;47.40;;;;;;5109049;28;20208;-70
2024/01/02 05:41:11;;;;;;;3.90;2.63;;;24.30;48.10;;;;;;5092775;28;20032;-70
2024/01/02 05:43:37;;;;;;;2.45;1.63;;;24.30;49.10;;;;;;5092922;28;20036;-70
2024/01/02 05:46:04;;;;;;;5.72;2.63;;;24.20;43.20;;;;;;5092748;28;20028;-69
2024/01/02 05:48:30;;;;;;;4.70;2.20;;;24.10;42.20;;;;;;5092760;28;20480;-70
2024/01/02 05:50:57;;;;;;;2.95;1.70;;;24.20;42.30;;;;;;5092864;28;20119;-71
2024/01/02 05:53:23;;;;;;;4.50;2.05;;;24.30;42.20;;;;;;5092913;28;20801;-70
2024/01/02 05:55:49;;;;;;;3.40;2.60;;;24.20;46.00;;;;;;5074357;28;20062;-69
2024/01/02 05:58:15;;;;;;;3.22;1.92;;;24.40;45.30;;;;;;5092608;28;20064;-70
2024/01/02 06:00:41;;;;;;;2.88;2.10;;;24.40;43.90;;;;;;5092713;28;20063;-70
2024/01/02 06:03:08;;;;;;;5.20;2.72;;;24.40;42.50;;;;;;5092453;28;20028;-70
2024/01/02 06:05:34;;;;;;;3.90;3.50;;;24.50;43.10;;;;;;5092446;28;20336;-70
2024/01/02 06:08:00;;;;;;;3.83;2.63;;;24.40;43.20;;;;;;5092321;28;20044;-70
2024/01/02 06:10:26;;;;;;;4.20;3.80;;;24.50;41.90;;;;;;5092032;28;20036;-70
2024/01/02 06:12:53;;;;;;;3.10;2.58;;;24.50;45.20;;;;;;5092382;28;20060;-69
2024/01/02 06:15:19;;;;;;;5.10;2.42;;;24.60;43.40;;;;;;5091957;28;20046;-71
2024/01/02 06:17:45;;;;;;;4.50;2.55;;;24.60;43.50;;;;;;5092231;28;20112;-69
2024/01/02 06:20:11;;;;;;;2.60;2.40;;;24.60;46.80;;;;;;5092026;28;20039;-69
2024/01/02 06:22:37;;;;;;;4.93;2.35;;;24.70;53.20;;;;;;5092040;28;20444;-69
2024/01/02 06:25:10;;;;;;;6.55;2.72;;;24.70;52.20;;;;;;5091794;28;20056;-65
2024/01/02 06:27:36;;;;;;;3.92;2.17;;;24.80;52.20;;;;;;5091941;28;20059;-68
2024/01/02 06:30:04;;;;;;;12.43;2.63;;;25.00;52.80;;;;;;5091906;28;20032;-69
2024/01/02 06:32:31;;;;;;;6.13;2.33;;;25.00;51.60;;;;;;5095197;28;20377;-70
2024/01/02 06:34:57;;;;;;;5.18;2.03;;;25.00;51.70;;;;;;5099005;27;20028;-70
2024/01/02 06:37:24;;;;;;;5.40;2.60;;;25.00;49.80;;;;;;5101735;28;20016;-69
2024/01/02 06:39:50;;;;;;;3.70;2.47;;;24.90;49.10;;;;;;5099084;28;20034;-71
2024/01/02 06:42:17;;;;;;;4.07;2.28;;;24.90;48.80;;;;;;5099932;28;20043;-71
2024/01/02 06:44:43;;;;;;;6.72;2.05;;;24.90;48.80;;;;;;5101435;28;20023;-74
2024/01/02 06:47:10;;;;;;;2.58;2.30;;;24.70;48.20;;;;;;5102235;28;20040;-71
2024/01/02 06:49:36;;;;;;;3.30;1.52;;;24.90;49.40;;;;;;5110707;28;20035;-70
2024/01/02 06:52:02;;;;;;;5.38;1.98;;;24.80;49.40;;;;;;5092449;28;20104;-69
2024/01/02 06:54:28;;;;;;;4.47;2.75;;;24.90;49.10;;;;;;5111827;28;20040;-71
2024/01/02 06:56:54;;;;;;;1.95;1.40;;;24.70;48.30;;;;;;5111623;28;20483;-70
2024/01/02 06:59:20;;;;;;;3.83;2.08;;;24.70;45.60;;;;;;5111759;28;20049;-78
2024/01/02 07:01:46;;;;;;;3.15;2.15;;;24.80;43.50;;;;;;5112127;28;20055;-74
2024/01/02 07:04:12;;;;;;;3.72;1.88;;;24.70;42.00;;;;;;5110593;28;20482;-72
2024/01/02 07:06:38;;;;;;;2.50;1.73;;;24.70;41.70;;;;;;5111503;28;20537;-72
2024/01/02 07:09:05;;;;;;;5.32;1.80;;;24.80;41.80;;;;;;5111628;28;20480;-71
2024/01/02 07:11:31;;;;;;;5.25;2.10;;;24.70;42.10;;;;;;5100749;28;20372;-76
2024/01/02 07:13:57;;;;;;;4.60;2.15;;;24.80;42.40;;;;;;5064232;28;20056;-72
2024/01/02 07:16:24;;;;;;;3.72;1.73;;;24.70;42.70;;;;;;5091875;28;20051;-75
2024/01/02 07:18:50;;;;;;;4.03;1.92;;;24.70;42.90;;;;;;5091841;28;20122;-75
2024/01/02 07:21:16;;;;;;;2.58;1.73;;;24.70;42.90;;;;;;5091244;28;20069;-71
2024/01/02 07:23:42;;;;;;;3.70;1.67;;;24.70;42.90;;;;;;5091479;28;20495;-77
2024/01/02 07:26:08;;;;;;;2.42;1.88;;;24.70;43.00;;;;;;5091083;28;20024;-73
2024/01/02 07:28:38;;;;;;;3.72;1.92;;;24.60;43.00;;;;;;5091055;28;20062;-70
2024/01/02 07:31:04;;;;;;;2.08;1.60;;;24.60;43.20;;;;;;5106823;28;20114;-71
2024/01/02 07:33:31;;;;;;;3.05;1.63;;;24.60;43.30;;;;;;5098181;28;20032;-70
2024/01/02 07:35:57;;;;;;;3.80;2.08;;;24.60;43.50;;;;;;5090629;28;20482;-69
2024/01/02 07:38:26;;;;;;;4.30;3.00;;;24.50;43.80;;;;;;5091108;28;20782;-72
2024/01/02 07:40:53;;;;;;;4.75;3.20;;;24.50;44.20;;;;;;5090806;28;20034;-72
2024/01/02 07:43:19;;;;;;;6.13;3.13;;;24.40;44.50;;;;;;5091057;28;20028;-70
2024/01/02 07:45:46;;;;;;;5.10;3.42;;;24.40;44.80;;;;;;5090605;28;20059;-69
2024/01/02 07:48:12;;;;;;;8.88;3.13;;;24.40;45.40;;;;;;5089500;28;20036;-66
2024/01/02 07:50:38;;;;;;;6.65;4.18;;;24.30;46.00;;;;;;5098164;28;20023;-70
2024/01/02 07:53:05;;;;;;;4.40;2.92;;;24.30;46.30;;;;;;5113925;28;20032;-69
2024/01/02 07:55:31;;;;;;;6.60;3.75;;;24.30;46.60;;;;;;5114980;28;20051;-68
2024/01/02 07:57:58;;;;;;;6.88;4.93;;;24.40;46.70;;;;;;5115324;28;20489;-69
2024/01/02 08:00:24;;;;;;;7.13;4.20;;;24.30;47.10;;;;;;5115045;28;20058;-69
2024/01/02 08:02:50;;;;;;;11.15;5.75;;;24.30;48.20;;;;;;5115104;28;20359;-70
2024/01/02 08:05:16;;;;;;;10.10;5.22;;;24.20;50.10;;;;;;5115134;28;20055;-68
2024/01/02 08:07:42;;;;;;;10.88;5.97;;;24.20;51.40;;;;;;5114833;28;20054;-68
2024/01/02 08:10:08;;;;;;;12.50;6.35;;;24.10;50.90;;;;;;5114767;28;20028;-70
2024/01/02 08:12:34;;;;;;;16.75;6.78;;;24.10;50.80;;;;;;5115182;28;20184;-68
2024/01/02 08:15:01;;;;;;;17.45;8.07;;;24.20;51.60;;;;;;5114546;28;20531;-67
2024/01/02 08:17:27;;;;;;;12.80;7.07;;;24.10;51.80;;;;;;5114732;28;20403;-69
2024/01/02 08:19:54;;;;;;;7.50;5.60;;;24.20;51.40;;;;;;5114954;28;20027;-69
2024/01/02 08:22:20;;;;;;;7.43;4.10;;;24.00;50.90;;;;;;5114756;28;20040;-67
2024/01/02 08:24:46;;;;;;;7.20;3.70;;;24.00;51.00;;;;;;5113047;28;20034;-69
2024/01/02 08:27:13;;;;;;;6.63;4.30;;;24.10;50.90;;;;;;5094887;28;20127;-68
2024/01/02 08:29:39;;;;;;;5.45;3.92;;;24.10;50.80;;;;;;5095149;28;20147;-69
2024/01/02 08:32:05;;;;;;;5.22;3.40;;;23.90;50.80;;;;;;5114634;28;20066;-68
2024/01/02 08:34:31;;;;;;;5.60;3.78;;;24.00;50.30;;;;;;5114702;28;20058;-69
2024/01/02 08:36:57;;;;;;;8.90;4.50;;;24.00;51.10;;;;;;5114513;28;20040;-69
2024/01/02 08:39:23;;;;;;;5.28;4.07;;;24.00;51.00;;;;;;5113285;28;20042;-69
2024/01/02 08:41:50;;;;;;;7.60;3.65;;;23.90;51.10;;;;;;5114550;28;20059;-67
2024/01/02 08:44:16;;;;;;;6.97;4.35;;;24.10;51.10;;;;;;5114410;28;20118;-68
2024/01/02 08:46:42;;;;;;;7.50;4.95;;;24.00;50.90;;;;;;5114260;28;20044;-68
2024/01/02 08:49:08;;;;;;;9.85;4.57;;;23.90;50.80;;;;;;5114149;28;20062;-67
2024/01/02 08:51:34;;;;;;;9.85;4.60;;;24.00;52.60;;;;;;5114172;28;20036;-70
2024/01/02 08:54:01;;;;;;;9.00;5.65;;;24.20;55.00;;;;;;5114110;28;20046;-69
2024/01/02 08:56:27;;;;;;;10.40;5.90;;;24.50;55.60;;;;;;5114099;28;20035;-69
2024/01/02 08:58:53;;;;;;;9.90;5.65;;;24.90;57.10;;;;;;5114192;27;20023;-69
2024/01/02 09:01:19;;;;;;;9.10;5.70;;;25.00;61.20;;;;;;5114111;28;20065;-69
2024/01/02 09:03:45;;;;;;;12.45;3.35;;;25.10;59.10;;;;;;5112986;28;20075;-70
2024/01/02 09:06:12;;;;;;;8.85;3.60;;;25.00;54.50;;;;;;5114121;28;20040;-77
2024/01/02 09:08:38;;;;;;;7.93;3.25;;;24.80;53.00;;;;;;5113744;28;20043;-74
2024/01/02 09:11:05;;;;;;;5.97;3.17;;;24.70;52.20;;;;;;5113922;28;20036;-73
2024/01/02 09:13:31;;;;;;;5.38;2.28;;;24.60;51.70;;;;;;5113647;28;20026;-72
2024/01/02 09:15:57;;;;;;;3.88;1.95;;;24.50;51.40;;;;;;5113677;28;20487;-72
2024/01/02 09:18:23;;;;;;;3.17;1.77;;;24.50;51.20;;;;;;5113687;28;20130;-73
2024/01/02 09:20:49;;;;;;;2.55;1.65;;;24.50;51.60;;;;;;5113709;28;20032;-74
2024/01/02 09:23:15;;;;;;;5.53;2.40;;;24.50;51.50;;;;;;5110366;28;20124;-69
2024/01/02 09:25:46;;;;;;;4.30;1.85;;;24.60;51.20;;;;;;5113651;28;20455;-70
2024/01/02 09:28:14;;;;;;;3.45;1.98;;;24.50;50.90;;;;;;5113055;28;20546;-70
2024/01/02 09:30:40;;;;;;;3.70;2.22;;;24.30;50.60;;;;;;5112416;28;20057;-70
2024/01/02 09:33:10;;;;;;;3.55;2.05;;;24.50;50.50;;;;;;5113258;28;20061;-70
2024/01/02 09:35:36;;;;;;;3.58;1.92;;;24.40;50.30;;;;;;5113372;28;20110;-70
2024/01/02 09:38:06;;;;;;;5.68;2.30;;;24.50;50.30;;;;;;5113787;28;20032;-71
2024/01/02 09:41:11;;;;;;;5.85;3.17;;;24.40;50.10;;;;;;5113178;28;20082;-69
2024/01/02 09:43:58;;;;;;;3.05;1.80;;;24.50;50.10;;;;;;5029971;28;20466;-68
2024/01/02 09:46:58;;;;;;;4.40;2.33;;;24.30;49.90;;;;;;5030220;28;20135;-70
2024/01/02 09:49:37;;;;;;;9.98;3.80;;;24.50;52.50;;;;;;5030150;28;20041;-69
2024/01/02 09:52:17;;;;;;;9.57;4.40;;;24.90;53.70;;;;;;5030107;28;20477;-71
2024/01/02 09:55:04;;;;;;;6.30;3.83;;;25.10;53.10;;;;;;5002096;28;20370;-70
2024/01/02 09:58:01;;;;;;;6.50;3.83;;;24.90;51.20;;;;;;5010115;28;20088;-70
2024/01/02 10:00:48;;;;;;;9.00;3.72;;;24.90;51.20;;;;;;5010087;28;20052;-69
2024/01/02 10:03:23;;;;;;;8.05;4.10;;;24.70;50.90;;;;;;5016811;28;20034;-71
2024/01/02 10:06:19;;;;;;;5.25;3.10;;;24.60;51.20;;;;;;5015181;28;20037;-71
2024/01/02 10:09:11;;;;;;;6.97;3.60;;;24.60;51.90;;;;;;4975919;28;20054;-76
2024/01/02 10:12:14;;;;;;;8.95;3.75;;;24.60;51.90;;;;;;4970488;28;20471;-76
2024/01/02 10:14:58;;;;;;;5.75;2.97;;;24.50;52.30;;;;;;4970605;28;20479;-73
2024/01/02 10:17:27;;;;;;;7.55;4.38;;;24.60;52.20;;;;;;4970821;28;20152;-75
2024/01/02 10:20:03;;;;;;;6.43;2.80;;;24.50;52.00;;;;;;4987760;28;20049;-73
2024/01/02 10:22:53;;;;;;;4.85;3.10;;;24.40;51.90;;;;;;5046281;28;20076;-72
2024/01/02 10:25:21;;;;;;;6.63;2.65;;;24.50;52.00;;;;;;5032696;28;20135;-73
2024/01/02 10:28:16;;;;;;;8.13;3.30;;;24.50;52.00;;;;;;5048975;28;20524;-73
2024/01/02 10:31:02;;;;;;;3.92;2.72;;;24.50;51.80;;;;;;5049026;28;20033;-77
2024/01/02 10:33:28;;;;;;;2.58;1.88;;;24.50;51.60;;;;;;5048894;28;20045;-69
2024/01/02 10:36:11;;;;;;;3.58;2.65;;;24.40;51.50;;;;;;5048752;28;20044;-70
2024/01/02 10:38:56;;;;;;;4.00;2.88;;;24.50;51.60;;;;;;5035591;28;20084;-71
2024/01/02 10:41:58;;;;;;;6.97;3.25;;;24.50;51.60;;;;;;5038413;28;20049;-72
2024/01/02 10:44:42;;;;;;;4.82;2.95;;;24.40;51.70;;;;;;5056594;28;20089;-72
2024/01/02 10:47:46;;;;;;;;;;;24.40;51.60;;;;;;5092125;28;20061;-72
2024/01/02 10:50:19;;;;;;;4.57;2.28;;;24.40;51.80;;;;;;5091544;28;19991;-72
2024/01/02 10:53:00;;;;;;;;;;;24.30;51.80;;;;;;5091757;28;20117;-75
2024/01/02 10:55:32;;;;;;;7.35;2.90;;;24.30;51.40;;;;;;5091542;28;20324;-69
2024/01/02 10:58:10;;;;;;;5.95;3.33;;;24.30;51.40;;;;;;5109746;28;20034;-67
2024/01/02 11:00:51;;;;;;;5.22;2.67;;;24.30;51.30;;;;;;5111679;28;20115;-71
2024/01/02 11:03:19;;;;;;;6.20;2.67;;;24.30;50.40;;;;;;5111363;28;20020;-72
2024/01/02 11:06:12;;;;;;;16.17;3.33;;;24.30;48.50;;;;;;5111960;28;20032;-75
2024/01/02 11:09:03;;;;;;;8.68;3.35;;;24.30;50.20;;;;;;5111449;28;20050;-74
2024/01/02 11:11:34;;;;;;;6.10;2.83;;;24.40;51.90;;;;;;5111453;28;20063;-79
2024/01/02 11:14:02;;;;;;;8.57;4.07;;;24.50;50.40;;;;;;5109129;28;20035;-73
2024/01/02 11:16:29;;;;;;;6.07;3.15;;;24.40;49.10;;;;;;5091322;28;20101;-74
2024/01/02 11:18:58;;;;;;;5.10;2.53;;;24.40;45.10;;;;;;5091187;28;20468;-76
2024/01/02 11:21:59;;;;;;;8.68;3.08;;;24.30;47.40;;;;;;5091224;28;20040;-71
2024/01/02 11:24:30;;;;;;;4.13;1.80;;;24.40;48.30;;;;;;5091109;28;20090;-71
2024/01/02 11:27:00;;;;;;;1.92;1.50;;;24.30;48.30;;;;;;5090756;28;20396;-71
2024/01/02 11:29:35;;;;;;;7.22;3.25;;;24.30;48.40;;;;;;5091288;28;20055;-74
2024/01/02 11:32:14;;;;;;;6.13;3.03;;;24.20;42.70;;;;;;5090805;28;20040;-72
2024/01/02 11:35:05;;;;;;;7.43;3.05;;;24.30;42.60;;;;;;5102401;28;20024;-73
2024/01/02 11:37:40;;;;;;;6.53;2.70;;;24.30;41.00;;;;;;5111562;28;20051;-74
2024/01/02 11:40:29;;;;;;;11.40;2.67;;;24.30;44.50;;;;;;5110036;28;20376;-72
2024/01/02 11:43:05;;;;;;;13.00;3.38;;;24.30;45.40;;;;;;5111672;28;20035;-77
2024/01/02 11:45:36;;;;;;;7.78;3.17;;;24.30;46.70;;;;;;5111512;28;20062;-75
2024/01/02 11:48:14;;;;;;;5.97;3.10;;;24.70;46.40;;;;;;5111581;28;20085;-75
2024/01/02 11:50:57;;;;;;;6.10;2.90;;;24.80;49.40;;;;;;5111229;28;20051;-76
2024/01/02 11:53:29;;;;;;;4.82;3.35;;;24.90;41.10;;;;;;5108520;28;20066;-72
2024/01/02 11:56:03;;;;;;;5.85;2.58;;;24.80;47.80;;;;;;5097189;28;20040;-73
2024/01/02 11:58:42;;;;;;;3.42;2.20;;;24.90;47.90;;;;;;5110345;28;20110;-72
2024/01/02 12:01:26;;;;;;;6.28;2.58;;;24.70;47.90;;;;;;5111463;28;20059;-73
2024/01/02 12:03:55;;;;;;;4.93;2.58;;;24.80;49.00;;;;;;5111174;28;20019;-76
2024/01/02 12:06:46;;;;;;;7.78;2.97;;;24.70;50.10;;;;;;5111471;28;20028;-75
2024/01/02 12:09:17;;;;;;;4.47;2.65;;;24.70;49.70;;;;;;5108769;28;20051;-72
2024/01/02 12:12:07;;;;;;;4.18;2.22;;;24.70;49.30;;;;;;5096702;28;20035;-73
2024/01/02 12:14:58;;;;;;;3.78;2.17;;;24.70;49.30;;;;;;5106680;28;20028;-73
2024/01/02 12:17:29;;;;;;;6.93;2.88;;;24.70;49.30;;;;;;5110298;28;20051;-74
2024/01/02 12:20:06;;;;;;;8.68;2.58;;;24.70;49.50;;;;;;5106591;28;20036;-74
2024/01/02 12:22:35;;;;;;;4.32;2.78;;;24.70;49.50;;;;;;5097528;28;20073;-73
2024/01/02 12:25:06;;;;;;;5.20;2.83;;;24.60;49.50;;;;;;5090629;28;20043;-74
2024/01/02 12:27:36;;;;;;;6.45;3.45;;;24.70;49.50;;;;;;5109515;28;20051;-74
2024/01/02 12:30:04;;;;;;;6.45;2.65;;;24.60;49.60;;;;;;5110940;28;20051;-73
2024/01/02 12:32:49;;;;;;;6.05;2.53;;;24.60;49.60;;;;;;5050906;28;20079;-74
2024/01/02 12:35:40;;;;;;;6.18;3.22;;;24.60;49.60;;;;;;5051002;28;20044;-73
2024/01/02 12:38:24;;;;;;;5.75;3.17;;;24.60;49.60;;;;;;5047538;28;20075;-74
2024/01/02 12:40:55;;;;;;;7.13;2.70;;;24.60;49.70;;;;;;5034430;28;20493;-73
2024/01/02 12:43:25;;;;;;;5.88;3.20;;;24.60;49.70;;;;;;5051261;28;20075;-74
2024/01/02 12:46:06;;;;;;;4.47;2.47;;;24.50;49.90;;;;;;5070496;28;20091;-73
2024/01/02 12:48:42;;;;;;;7.75;2.83;;;24.50;50.00;;;;;;5058563;28;20064;-72
2024/01/02 12:51:11;;;;;;;5.68;3.00;;;24.50;50.00;;;;;;5051034;28;20052;-73
2024/01/02 12:53:40;;;;;;;5.00;2.20;;;24.70;50.20;;;;;;5034527;28;20100;-73
2024/01/02 12:56:08;;;;;;;4.68;2.55;;;24.50;50.10;;;;;;5051201;28;20052;-73
2024/01/02 12:58:35;;;;;;;4.45;2.85;;;24.40;50.20;;;;;;5063133;28;20039;-66
2024/01/02 13:01:02;;;;;;;5.03;3.15;;;24.40;50.30;;;;;;5058033;28;20028;-67